Time;durP1;ratioP1;P1;durP2;ratioP2;P2;SDS_P1;SDS_P2;PMS_P1;PMS_P2;Temp;Humidity;BMP_temperature;BMP_pressure;BME280_temperature;BME280_humidity;BME280_pressure;Samples;Min_cycle;Max_cycle;Signal;HPM_P1;HPM_P2
2023/07/01 00:01:22;;;;;;;26.75;11.75;;;;;;;;;;5059720;28;20441;-63
2023/07/01 00:03:51;;;;;;;26.95;12.88;;;;;;;;;;5054504;28;20257;-62
2023/07/01 00:06:20;;;;;;;28.52;12.63;;;;;;;;;;5072345;28;20044;-63
2023/07/01 00:08:49;;;;;;;29.52;12.82;;;;;;;;;;5077943;28;20052;-64
2023/07/01 00:11:17;;;;;;;28.15;12.68;;;;;;;;;;5074560;28;20036;-62
2023/07/01 00:13:47;;;;;;;25.70;12.40;;;;;;;;;;5075056;28;20093;-63
2023/07/01 00:16:15;;;;;;;27.90;11.88;;;;;;;;;;5058629;28;20080;-63
2023/07/01 00:18:45;;;;;;;31.02;12.00;;;;;;;;;;5054704;28;20048;-62
2023/07/01 00:21:14;;;;;;;29.08;12.02;;;;;;;;;;5056656;28;20045;-64
2023/07/01 00:23:42;;;;;;;32.38;11.85;;;;;;;;;;5056783;28;20045;-63
2023/07/01 00:26:11;;;;;;;28.40;11.50;;;;;;;;;;5071079;28;20075;-64
2023/07/01 00:28:39;;;;;;;31.10;12.93;;;;;;;;;;5077284;28;20196;-65
2023/07/01 00:31:09;;;;;;;29.80;12.93;;;;;;;;;;5079573;28;20048;-62
2023/07/01 00:33:37;;;;;;;28.27;12.27;;;;;;;;;;5074321;28;20052;-62
2023/07/01 00:36:06;;;;;;;26.75;11.85;;;;;;;;;;5059126;28;20094;-66
2023/07/01 00:38:34;;;;;;;29.20;12.60;;;;;;;;;;5054970;28;20137;-66
2023/07/01 00:41:02;;;;;;;28.27;12.13;;;;;;;;;;5057767;28;20329;-63
2023/07/01 00:43:31;;;;;;;26.90;12.13;;;;;;;;;;5061342;28;20110;-63
2023/07/01 00:45:59;;;;;;;27.33;12.15;;;;;;;;;;5071024;28;20068;-63
2023/07/01 00:48:30;;;;;;;32.78;12.73;;;;;;;;;;5079616;28;20040;-68
2023/07/01 00:50:58;;;;;;;32.17;12.20;;;;;;;;;;5080458;28;20044;-66
2023/07/01 00:53:27;;;;;;;32.05;12.73;;;;;;;;;;5078481;28;20052;-66
2023/07/01 00:55:55;;;;;;;31.58;13.25;;;;;;;;;;5066568;28;20549;-63
2023/07/01 00:58:24;;;;;;;34.25;13.15;;;;;;;;;;5056090;28;20134;-62
2023/07/01 01:00:56;;;;;;;32.28;13.20;;;;;;;;;;5061161;28;20076;-63
2023/07/01 01:03:29;;;;;;;27.65;11.75;;;;;;;;;;5073386;23;20032;-67
2023/07/01 01:06:04;;;;;;;28.13;12.00;;;;;;;;;;5053883;28;20071;-69
2023/07/01 01:08:36;;;;;;;27.90;11.90;;;;;;;;;;5060151;28;20079;-69
2023/07/01 01:11:06;;;;;;;31.60;13.73;;;;;;;;;;5058546;28;20485;-68
2023/07/01 01:13:35;;;;;;;29.67;11.45;;;;;;;;;;5058414;28;20130;-69
2023/07/01 01:16:03;;;;;;;29.30;13.32;;;;;;;;;;5045407;28;20789;-69
2023/07/01 01:18:32;;;;;;;34.13;12.90;;;;;;;;;;5042017;28;20045;-69
2023/07/01 01:21:04;;;;;;;30.33;14.02;;;;;;;;;;5041818;28;20053;-69
2023/07/01 01:23:37;;;;;;;28.85;13.18;;;;;;;;;;5039143;28;20053;-69
2023/07/01 01:26:08;;;;;;;28.92;12.77;;;;;;;;;;5054929;28;20072;-69
2023/07/01 01:28:38;;;;;;;32.38;13.45;;;;;;;;;;5057267;28;20495;-71
2023/07/01 01:31:06;;;;;;;29.98;13.20;;;;;;;;;;5059702;28;20118;-70
2023/07/01 01:33:35;;;;;;;33.00;12.35;;;;;;;;;;5057794;28;20493;-70
2023/07/01 01:36:08;;;;;;;35.38;13.80;;;;;;;;;;5060850;28;20464;-70
2023/07/01 01:38:38;;;;;;;32.47;14.75;;;;;;;;;;5059432;28;20076;-69
2023/07/01 01:41:09;;;;;;;34.47;12.98;;;;;;;;;;5057245;28;20040;-69
2023/07/01 01:43:43;;;;;;;33.60;13.23;;;;;;;;;;5060470;28;20131;-70
2023/07/01 01:46:11;;;;;;;34.77;13.17;;;;;;;;;;5059306;28;20122;-68
2023/07/01 01:48:40;;;;;;;37.13;14.85;;;;;;;;;;5059745;28;20048;-69
2023/07/01 01:51:09;;;;;;;35.22;13.98;;;;;;;;;;5055775;28;20497;-69
2023/07/01 01:53:39;;;;;;;38.38;15.32;;;;;;;;;;5056753;28;20114;-69
2023/07/01 01:56:08;;;;;;;35.50;14.93;;;;;;;;;;5059529;28;20040;-70
2023/07/01 01:58:37;;;;;;;36.58;14.10;;;;;;;;;;5061879;28;20533;-69
2023/07/01 02:01:07;;;;;;;35.08;14.55;;;;;;;;;;5060738;28;20057;-70
2023/07/01 02:03:35;;;;;;;35.35;14.40;;;;;;;;;;5056042;28;20053;-65
2023/07/01 02:06:04;;;;;;;30.90;13.80;;;;;;;;;;5057767;28;20133;-69
2023/07/01 02:08:32;;;;;;;31.83;13.60;;;;;;;;;;5058087;28;20094;-69
2023/07/01 02:11:00;;;;;;;35.75;13.07;;;;;;;;;;5058905;28;20052;-70
2023/07/01 02:13:29;;;;;;;29.80;12.82;;;;;;;;;;5059851;28;20559;-70
2023/07/01 02:15:57;;;;;;;33.55;13.95;;;;;;;;;;5060336;28;20487;-69
2023/07/01 02:18:27;;;;;;;34.65;14.32;;;;;;;;;;5058445;28;20390;-69
2023/07/01 02:20:56;;;;;;;34.67;13.52;;;;;;;;;;5057837;28;20387;-69
2023/07/01 02:23:24;;;;;;;28.00;12.13;;;;;;;;;;5059262;28;20048;-65
2023/07/01 02:25:52;;;;;;;32.38;12.20;;;;;;;;;;5055682;28;20102;-68
2023/07/01 02:28:21;;;;;;;30.75;12.50;;;;;;;;;;5057810;28;20048;-69
2023/07/01 02:30:49;;;;;;;30.45;12.45;;;;;;;;;;5059028;28;20695;-65
2023/07/01 02:33:18;;;;;;;27.65;11.55;;;;;;;;;;5059407;28;20052;-69
2023/07/01 02:35:48;;;;;;;26.90;10.90;;;;;;;;;;5057954;28;20455;-68
2023/07/01 02:38:16;;;;;;;25.20;10.35;;;;;;;;;;5058564;28;20041;-66
2023/07/01 02:40:45;;;;;;;25.77;10.63;;;;;;;;;;5057968;28;20052;-70
2023/07/01 02:43:13;;;;;;;24.20;9.75;;;;;;;;;;5057689;28;20359;-68
2023/07/01 02:45:42;;;;;;;20.58;8.35;;;;;;;;;;5059831;28;20048;-69
2023/07/01 02:48:10;;;;;;;21.85;9.88;;;;;;;;;;5059933;28;20129;-69
2023/07/01 02:50:39;;;;;;;26.30;10.18;;;;;;;;;;5061077;28;20044;-69
2023/07/01 02:53:08;;;;;;;24.95;9.18;;;;;;;;;;5054239;28;20134;-69
2023/07/01 02:55:37;;;;;;;22.50;8.70;;;;;;;;;;5058345;28;20049;-65
2023/07/01 02:58:05;;;;;;;23.35;9.43;;;;;;;;;;5060369;28;20044;-69
2023/07/01 03:00:34;;;;;;;17.75;8.48;;;;;;;;;;5055642;28;20572;-69
2023/07/01 03:03:06;;;;;;;17.25;7.75;;;;;;;;;;5055907;28;20056;-68
2023/07/01 03:05:35;;;;;;;18.48;8.57;;;;;;;;;;5056093;28;20048;-68
2023/07/01 03:08:03;;;;;;;15.50;7.03;;;;;;;;;;5058974;28;20052;-68
2023/07/01 03:10:33;;;;;;;20.73;7.75;;;;;;;;;;5056371;28;20097;-70
2023/07/01 03:13:02;;;;;;;19.00;6.68;;;;;;;;;;5057570;28;20762;-68
2023/07/01 03:15:30;;;;;;;16.77;7.28;;;;;;;;;;5056852;28;20041;-66
2023/07/01 03:17:59;;;;;;;16.23;7.40;;;;;;;;;;5059423;28;20049;-67
2023/07/01 03:20:28;;;;;;;13.43;5.97;;;;;;;;;;5054567;28;20547;-67
2023/07/01 03:22:57;;;;;;;18.30;7.38;;;;;;;;;;5059851;28;20723;-67
2023/07/01 03:25:26;;;;;;;15.90;7.05;;;;;;;;;;5053777;28;20060;-66
2023/07/01 03:27:56;;;;;;;13.02;5.95;;;;;;;;;;5059978;28;20142;-67
2023/07/01 03:30:29;;;;;;;12.75;5.07;;;;;;;;;;5055581;28;20197;-66
2023/07/01 03:32:57;;;;;;;17.77;6.32;;;;;;;;;;5058331;28;20053;-67
2023/07/01 03:35:26;;;;;;;11.40;5.90;;;;;;;;;;5057311;28;20550;-67
2023/07/01 03:37:54;;;;;;;13.02;5.28;;;;;;;;;;5058718;28;20053;-68
2023/07/01 03:40:23;;;;;;;9.25;4.40;;;;;;;;;;5054721;28;20052;-67
2023/07/01 03:42:51;;;;;;;9.40;4.60;;;;;;;;;;5058537;28;20055;-65
2023/07/01 03:45:21;;;;;;;12.00;4.55;;;;;;;;;;5056803;28;20051;-66
2023/07/01 03:47:49;;;;;;;10.93;5.15;;;;;;;;;;5059812;28;20559;-66
2023/07/01 03:50:18;;;;;;;12.23;4.97;;;;;;;;;;5057530;28;20055;-66
2023/07/01 03:52:46;;;;;;;9.60;5.07;;;;;;;;;;5058479;28;20134;-67
2023/07/01 03:55:15;;;;;;;11.85;5.18;;;;;;;;;;5058261;28;20106;-66
2023/07/01 03:57:43;;;;;;;9.50;4.50;;;;;;;;;;5060611;28;20483;-66
2023/07/01 04:00:17;;;;;;;12.13;4.70;;;;;;;;;;5056205;28;20923;-64
2023/07/01 04:02:48;;;;;;;11.27;5.10;;;;;;;;;;5056828;28;20056;-65
2023/07/01 04:05:16;;;;;;;12.80;5.63;;;;;;;;;;5055720;28;20041;-66
2023/07/01 04:07:47;;;;;;;13.02;5.63;;;;;;;;;;5058646;28;20106;-66
2023/07/01 04:10:15;;;;;;;13.68;5.20;;;;;;;;;;5058217;28;20053;-66
2023/07/01 04:12:44;;;;;;;13.27;5.13;;;;;;;;;;5059519;28;20128;-65
2023/07/01 04:15:12;;;;;;;12.32;5.07;;;;;;;;;;5058644;28;20737;-66
2023/07/01 04:17:41;;;;;;;13.85;4.97;;;;;;;;;;5061539;28;20517;-66
2023/07/01 04:20:13;;;;;;;11.77;5.15;;;;;;;;;;5059848;28;20508;-67
2023/07/01 04:22:42;;;;;;;12.82;5.70;;;;;;;;;;5061923;28;20048;-67
2023/07/01 04:25:11;;;;;;;10.55;4.47;;;;;;;;;;5061988;28;20045;-66
2023/07/01 04:27:42;;;;;;;9.65;4.55;;;;;;;;;;5061638;28;20057;-66
2023/07/01 04:30:12;;;;;;;10.32;4.65;;;;;;;;;;5063768;28;20052;-66
2023/07/01 04:32:40;;;;;;;7.40;3.53;;;;;;;;;;5058775;28;20052;-62
2023/07/01 04:35:09;;;;;;;12.75;4.88;;;;;;;;;;5056629;28;20036;-67
2023/07/01 04:37:39;;;;;;;10.07;3.95;;;;;;;;;;5061810;28;20575;-64
2023/07/01 04:40:09;;;;;;;5.75;2.80;;;;;;;;;;5061094;28;20842;-67
2023/07/01 04:42:37;;;;;;;7.43;3.92;;;;;;;;;;5057486;28;20048;-67
2023/07/01 04:45:07;;;;;;;8.40;3.88;;;;;;;;;;5060945;28;20071;-66
2023/07/01 04:47:36;;;;;;;8.35;3.75;;;;;;;;;;5057638;28;20072;-67
2023/07/01 04:50:04;;;;;;;7.80;3.60;;;;;;;;;;5062153;28;20103;-67
2023/07/01 04:52:33;;;;;;;7.95;3.42;;;;;;;;;;5060486;28;20686;-68
2023/07/01 04:55:03;;;;;;;6.80;3.65;;;;;;;;;;5059285;28;20715;-65
2023/07/01 04:57:31;;;;;;;7.35;3.80;;;;;;;;;;5059055;28;20127;-62
2023/07/01 05:00:01;;;;;;;8.93;3.70;;;;;;;;;;5057174;28;20098;-67
2023/07/01 05:02:29;;;;;;;9.05;4.15;;;;;;;;;;5055310;28;20477;-62
2023/07/01 05:04:58;;;;;;;6.97;3.40;;;;;;;;;;5060638;28;20076;-65
2023/07/01 05:07:26;;;;;;;7.22;4.13;;;;;;;;;;5061530;28;20045;-68
2023/07/01 05:09:55;;;;;;;8.60;4.30;;;;;;;;;;5062177;28;20141;-67
2023/07/01 05:12:26;;;;;;;8.90;3.47;;;;;;;;;;5059273;28;20393;-69
2023/07/01 05:14:55;;;;;;;12.70;3.97;;;;;;;;;;5061042;28;20123;-68
2023/07/01 05:17:23;;;;;;;8.77;3.58;;;;;;;;;;5064763;28;20048;-68
2023/07/01 05:19:51;;;;;;;9.52;3.60;;;;;;;;;;5061969;28;20497;-68
2023/07/01 05:22:20;;;;;;;6.72;3.50;;;;;;;;;;5062507;28;20098;-64
2023/07/01 05:24:48;;;;;;;5.45;3.15;;;;;;;;;;5059471;28;20597;-68
2023/07/01 05:27:17;;;;;;;7.95;3.42;;;;;;;;;;5059089;28;20477;-69
2023/07/01 05:29:46;;;;;;;8.00;3.75;;;;;;;;;;5061194;28;20102;-66
2023/07/01 05:32:15;;;;;;;6.68;3.53;;;;;;;;;;5063811;28;20044;-67
2023/07/01 05:34:43;;;;;;;6.78;3.22;;;;;;;;;;5059774;28;20068;-66
2023/07/01 05:37:12;;;;;;;8.88;4.22;;;;;;;;;;5059783;28;20408;-65
2023/07/01 05:39:40;;;;;;;7.68;3.90;;;;;;;;;;5055721;28;20060;-68
2023/07/01 05:42:08;;;;;;;6.75;3.72;;;;;;;;;;5061160;28;20495;-69
2023/07/01 05:44:37;;;;;;;8.40;4.28;;;;;;;;;;5056114;28;20117;-66
2023/07/01 05:47:07;;;;;;;11.25;3.97;;;;;;;;;;5058480;28;21346;-63
2023/07/01 05:49:35;;;;;;;9.27;4.38;;;;;;;;;;5058239;28;20045;-67
2023/07/01 05:52:04;;;;;;;9.02;3.70;;;;;;;;;;5058726;28;20557;-66
2023/07/01 05:54:32;;;;;;;9.18;4.18;;;;;;;;;;5054522;28;20493;-66
2023/07/01 05:57:01;;;;;;;9.52;3.90;;;;;;;;;;5055968;28;20128;-66
2023/07/01 05:59:29;;;;;;;8.70;4.18;;;;;;;;;;5057617;28;21438;-67
2023/07/01 06:01:57;;;;;;;8.27;3.78;;;;;;;;;;5055608;28;20044;-68
2023/07/01 06:04:27;;;;;;;7.88;3.67;;;;;;;;;;5058495;28;20052;-67
2023/07/01 06:06:56;;;;;;;8.88;4.03;;;;;;;;;;5053762;28;20060;-67
2023/07/01 06:09:24;;;;;;;8.40;3.47;;;;;;;;;;5056788;28;20131;-66
2023/07/01 06:11:53;;;;;;;7.80;3.13;;;;;;;;;;5053202;28;20142;-64
2023/07/01 06:14:22;;;;;;;8.05;3.45;;;;;;;;;;5056201;28;20056;-65
2023/07/01 06:16:50;;;;;;;7.30;3.58;;;;;;;;;;5056846;28;20044;-67
2023/07/01 06:19:18;;;;;;;8.40;3.92;;;;;;;;;;5053908;28;20164;-67
2023/07/01 06:21:49;;;;;;;8.68;3.45;;;;;;;;;;5055082;28;20060;-64
2023/07/01 06:24:17;;;;;;;8.05;3.55;;;;;;;;;;5051166;28;20052;-68
2023/07/01 06:26:46;;;;;;;8.07;4.03;;;;;;;;;;5056130;28;20378;-66
2023/07/01 06:29:14;;;;;;;8.65;3.30;;;;;;;;;;5055034;28;20041;-66
2023/07/01 06:31:42;;;;;;;5.72;3.30;;;;;;;;;;5055908;28;20139;-67
2023/07/01 06:34:13;;;;;;;10.63;3.85;;;;;;;;;;5059138;28;20045;-67
2023/07/01 06:36:41;;;;;;;7.43;3.50;;;;;;;;;;5055863;28;20601;-64
2023/07/01 06:39:12;;;;;;;6.25;3.00;;;;;;;;;;5058677;28;20084;-67
2023/07/01 06:41:40;;;;;;;7.72;3.58;;;;;;;;;;5055949;28;20056;-67
2023/07/01 06:44:09;;;;;;;8.55;3.65;;;;;;;;;;5056431;28;20090;-67
2023/07/01 06:46:37;;;;;;;6.93;3.65;;;;;;;;;;5035659;28;20056;-67
2023/07/01 06:49:05;;;;;;;4.97;3.10;;;;;;;;;;5036954;28;20564;-66
2023/07/01 06:51:34;;;;;;;6.07;3.42;;;;;;;;;;5035579;28;20056;-67
2023/07/01 06:54:02;;;;;;;4.88;2.83;;;;;;;;;;5038044;28;20179;-68
2023/07/01 06:56:32;;;;;;;6.85;3.15;;;;;;;;;;5052068;28;20047;-65
2023/07/01 06:59:00;;;;;;;5.38;3.25;;;;;;;;;;5057801;28;20044;-66
2023/07/01 07:01:29;;;;;;;7.22;3.28;;;;;;;;;;5053839;28;20076;-67
2023/07/01 07:03:57;;;;;;;5.95;3.20;;;;;;;;;;5056512;28;20075;-73
2023/07/01 07:06:26;;;;;;;7.45;2.97;;;;;;;;;;5055615;28;20048;-64
2023/07/01 07:08:55;;;;;;;6.45;3.28;;;;;;;;;;5052717;28;20056;-65
2023/07/01 07:11:24;;;;;;;5.75;2.65;;;;;;;;;;5054887;28;20102;-66
2023/07/01 07:13:54;;;;;;;6.18;3.08;;;;;;;;;;5056617;28;20043;-65
2023/07/01 07:16:22;;;;;;;7.85;3.40;;;;;;;;;;5055859;28;20143;-68
2023/07/01 07:18:53;;;;;;;5.60;2.80;;;;;;;;;;5054380;28;20106;-65
2023/07/01 07:21:21;;;;;;;5.45;2.78;;;;;;;;;;5055988;28;20047;-69
2023/07/01 07:23:50;;;;;;;5.80;3.15;;;;;;;;;;5057391;28;20048;-73
2023/07/01 07:26:18;;;;;;;6.20;3.30;;;;;;;;;;5059613;28;20432;-72
2023/07/01 07:28:47;;;;;;;6.68;2.67;;;;;;;;;;5061301;28;20056;-74
2023/07/01 07:31:17;;;;;;;4.75;2.40;;;;;;;;;;5058823;28;20044;-75
2023/07/01 07:33:46;;;;;;;4.47;2.92;;;;;;;;;;5059298;28;20044;-73
2023/07/01 07:36:14;;;;;;;7.22;2.80;;;;;;;;;;5061047;28;20472;-72
2023/07/01 07:38:43;;;;;;;7.03;2.53;;;;;;;;;;5059551;28;20052;-71
2023/07/01 07:41:12;;;;;;;5.85;2.92;;;;;;;;;;5060177;28;20056;-73
2023/07/01 07:43:40;;;;;;;4.95;2.90;;;;;;;;;;5053828;28;20036;-74
2023/07/01 07:46:09;;;;;;;5.20;2.78;;;;;;;;;;5053250;28;20098;-66
2023/07/01 07:48:39;;;;;;;4.32;2.67;;;;;;;;;;5058259;28;20117;-70
2023/07/01 07:51:08;;;;;;;5.80;3.13;;;;;;;;;;5059033;28;20086;-67
2023/07/01 07:53:36;;;;;;;5.68;2.72;;;;;;;;;;5063149;28;20048;-69
2023/07/01 07:56:05;;;;;;;4.70;2.72;;;;;;;;;;5064726;28;20105;-70
2023/07/01 07:58:33;;;;;;;4.78;2.55;;;;;;;;;;5061421;28;20048;-69
2023/07/01 08:01:02;;;;;;;4.72;2.63;;;;;;;;;;5058359;28;20048;-71
2023/07/01 08:03:30;;;;;;;5.95;2.95;;;;;;;;;;5058692;28;20113;-71
2023/07/01 08:06:00;;;;;;;5.18;2.50;;;;;;;;;;5059306;28;20512;-68
2023/07/01 08:08:28;;;;;;;4.45;2.38;;;;;;;;;;5060873;28;20048;-71
2023/07/01 08:10:57;;;;;;;3.92;2.28;;;;;;;;;;5062168;28;20060;-66
2023/07/01 08:13:25;;;;;;;5.82;2.83;;;;;;;;;;5059293;28;20102;-68
2023/07/01 08:15:54;;;;;;;6.10;2.70;;;;;;;;;;5060137;28;20548;-70
2023/07/01 08:18:22;;;;;;;4.72;2.60;;;;;;;;;;5059912;28;20139;-71
2023/07/01 08:20:50;;;;;;;5.45;2.65;;;;;;;;;;5056614;28;20166;-70
2023/07/01 08:23:21;;;;;;;4.50;2.30;;;;;;;;;;5058385;28;20044;-70
2023/07/01 08:25:52;;;;;;;4.50;2.60;;;;;;;;;;5057545;28;20055;-71
2023/07/01 08:28:21;;;;;;;6.20;2.92;;;;;;;;;;5057503;28;20044;-72
2023/07/01 08:30:49;;;;;;;5.38;2.25;;;;;;;;;;5059580;28;20091;-67
2023/07/01 08:33:18;;;;;;;5.63;2.67;;;;;;;;;;5059590;28;20134;-70
2023/07/01 08:35:47;;;;;;;3.72;1.92;;;;;;;;;;5055094;28;20048;-69
2023/07/01 08:38:16;;;;;;;4.93;2.30;;;;;;;;;;5059564;28;20137;-69
2023/07/01 08:40:46;;;;;;;4.38;2.80;;;;;;;;;;5057461;28;20059;-70
2023/07/01 08:43:15;;;;;;;3.78;2.28;;;;;;;;;;5053363;28;20083;-70
2023/07/01 08:45:44;;;;;;;4.72;2.42;;;;;;;;;;5050225;28;20052;-70
2023/07/01 08:48:13;;;;;;;4.30;2.35;;;;;;;;;;5056096;28;20049;-70
2023/07/01 08:50:44;;;;;;;3.33;2.47;;;;;;;;;;5055322;28;20060;-71
2023/07/01 08:53:13;;;;;;;4.07;2.20;;;;;;;;;;5050780;28;20052;-70
2023/07/01 08:55:42;;;;;;;4.20;2.30;;;;;;;;;;5051218;28;20106;-70
2023/07/01 08:58:13;;;;;;;4.72;2.53;;;;;;;;;;5054949;28;20122;-70
2023/07/01 09:00:41;;;;;;;2.17;1.80;;;;;;;;;;5054911;28;20056;-71
2023/07/01 09:03:11;;;;;;;3.50;2.17;;;;;;;;;;5057257;28;20110;-71
2023/07/01 09:05:40;;;;;;;6.88;2.10;;;;;;;;;;5055634;28;20080;-70
2023/07/01 09:08:08;;;;;;;3.53;2.10;;;;;;;;;;5057847;28;20052;-71
2023/07/01 09:10:37;;;;;;;5.18;2.38;;;;;;;;;;5057482;28;20048;-70
2023/07/01 09:13:13;;;;;;;3.45;2.20;;;;;;;;;;5059406;28;20049;-69
2023/07/01 09:15:44;;;;;;;6.55;1.80;;;;;;;;;;5061594;28;20059;-70
2023/07/01 09:18:23;;;;;;;2.25;1.60;;;;;;;;;;5056812;28;20051;-68
2023/07/01 09:20:52;;;;;;;6.68;2.40;;;;;;;;;;5058202;28;20705;-69
2023/07/01 09:23:27;;;;;;;2.25;1.35;;;;;;;;;;5062842;28;20395;-70
2023/07/01 09:26:11;;;;;;;4.22;2.17;;;;;;;;;;5057029;28;20460;-73
2023/07/01 09:28:41;;;;;;;7.07;2.00;;;;;;;;;;5059823;28;20114;-74
2023/07/01 09:31:10;;;;;;;3.50;2.42;;;;;;;;;;5060155;28;20040;-72
2023/07/01 09:33:39;;;;;;;4.82;2.38;;;;;;;;;;5059582;28;20074;-71
2023/07/01 09:36:09;;;;;;;4.65;2.28;;;;;;;;;;5055498;28;20246;-74
2023/07/01 09:38:51;;;;;;;4.60;2.05;;;;;;;;;;5055164;28;20053;-73
2023/07/01 09:41:23;;;;;;;5.78;1.77;;;;;;;;;;5054845;28;20045;-72
2023/07/01 09:43:53;;;;;;;3.00;2.00;;;;;;;;;;5058042;28;20044;-70
2023/07/01 09:46:22;;;;;;;7.82;2.42;;;;;;;;;;5059378;28;20041;-74
2023/07/01 09:48:52;;;;;;;7.05;1.92;;;;;;;;;;5057551;28;20063;-71
2023/07/01 09:51:21;;;;;;;3.05;1.60;;;;;;;;;;5053900;28;20048;-71
2023/07/01 09:53:50;;;;;;;4.13;2.30;;;;;;;;;;5056414;28;20354;-74
2023/07/01 09:56:19;;;;;;;3.47;1.70;;;;;;;;;;5056501;28;20386;-76
2023/07/01 09:58:48;;;;;;;3.38;1.90;;;;;;;;;;5056065;28;20044;-79
2023/07/01 10:01:18;;;;;;;4.07;2.30;;;;;;;;;;5053386;28;20490;-80
2023/07/01 10:03:46;;;;;;;3.20;1.90;;;;;;;;;;5059381;28;20456;-70
2023/07/01 10:06:15;;;;;;;3.13;1.80;;;;;;;;;;5059262;28;20139;-72
2023/07/01 10:08:44;;;;;;;3.90;1.55;;;;;;;;;;5054635;28;20412;-73
2023/07/01 10:11:15;;;;;;;2.45;1.52;;;;;;;;;;5058791;28;20447;-71
2023/07/01 10:13:45;;;;;;;3.00;1.73;;;;;;;;;;5052683;28;20530;-72
2023/07/01 10:16:13;;;;;;;2.70;1.73;;;;;;;;;;5054317;28;20675;-71
2023/07/01 10:18:43;;;;;;;2.40;1.55;;;;;;;;;;5049951;28;20588;-69
2023/07/01 10:21:30;;;;;;;3.47;2.38;;;;;;;;;;5057246;28;20082;-69
2023/07/01 10:24:00;;;;;;;3.10;1.60;;;;;;;;;;5052307;28;20056;-73
2023/07/01 10:26:35;;;;;;;2.97;1.77;;;;;;;;;;5058023;28;20052;-71
2023/07/01 10:29:18;;;;;;;3.25;1.58;;;;;;;;;;5053882;28;20052;-72
2023/07/01 10:32:01;;;;;;;2.92;1.80;;;;;;;;;;5057641;28;20059;-71
2023/07/01 10:34:45;;;;;;;3.45;1.90;;;;;;;;;;5052501;28;20036;-72
2023/07/01 10:37:15;;;;;;;2.25;1.65;;;;;;;;;;5056185;28;20106;-73
2023/07/01 10:39:43;;;;;;;5.22;1.92;;;;;;;;;;5055551;28;20048;-70
2023/07/01 10:42:30;;;;;;;2.90;1.60;;;;;;;;;;5053838;28;20048;-71
2023/07/01 10:45:14;;;;;;;7.45;1.95;;;;;;;;;;5053684;28;20763;-73
2023/07/01 10:47:43;;;;;;;3.08;2.00;;;;;;;;;;5055347;28;20049;-73
2023/07/01 10:50:12;;;;;;;2.70;1.70;;;;;;;;;;5061889;28;20406;-72
2023/07/01 10:53:00;;;;;;;4.50;1.80;;;;;;;;;;5052844;28;20041;-70
2023/07/01 10:55:38;;;;;;;3.28;1.85;;;;;;;;;;5060927;28;20060;-72
2023/07/01 10:58:21;;;;;;;2.65;1.95;;;;;;;;;;5055588;28;20129;-68
2023/07/01 11:00:50;;;;;;;3.63;1.90;;;;;;;;;;5057074;28;20051;-69
2023/07/01 11:03:38;;;;;;;2.72;1.88;;;;;;;;;;5056684;28;20040;-70
2023/07/01 11:06:07;;;;;;;2.58;1.77;;;;;;;;;;5053907;28;20135;-71
2023/07/01 11:08:44;;;;;;;2.92;1.80;;;;;;;;;;5058486;28;20049;-72
2023/07/01 11:11:19;;;;;;;3.05;1.77;;;;;;;;;;5058882;28;20419;-72
2023/07/01 11:14:01;;;;;;;3.67;1.75;;;;;;;;;;5057832;28;20040;-70
2023/07/01 11:16:30;;;;;;;4.00;1.42;;;;;;;;;;5056027;28;20044;-72
2023/07/01 11:19:00;;;;;;;5.50;1.90;;;;;;;;;;5058165;28;20444;-75
2023/07/01 11:21:29;;;;;;;5.57;1.95;;;;;;;;;;5062499;28;20128;-71
2023/07/01 11:23:58;;;;;;;5.47;2.55;;;;;;;;;;5058688;28;20143;-72
2023/07/01 11:26:29;;;;;;;4.53;1.50;;;;;;;;;;5053604;28;20109;-72
2023/07/01 11:28:57;;;;;;;2.70;1.75;;;;;;;;;;5056251;28;20049;-72
2023/07/01 11:31:26;;;;;;;2.72;1.60;;;;;;;;;;5053125;28;20488;-73
2023/07/01 11:33:56;;;;;;;2.90;1.55;;;;;;;;;;5053526;28;20249;-74
2023/07/01 11:36:34;;;;;;;4.10;2.00;;;;;;;;;;5056828;28;20523;-73
2023/07/01 11:39:05;;;;;;;6.40;2.47;;;;;;;;;;5058352;28;20351;-73
2023/07/01 11:41:35;;;;;;;2.08;1.60;;;;;;;;;;5055732;28;20056;-73
2023/07/01 11:44:03;;;;;;;3.38;1.73;;;;;;;;;;5055731;28;20157;-72
2023/07/01 11:46:33;;;;;;;3.17;1.60;;;;;;;;;;5058349;28;20054;-72
2023/07/01 11:49:17;;;;;;;3.78;1.50;;;;;;;;;;5058868;28;20052;-71
2023/07/01 11:51:47;;;;;;;5.00;2.00;;;;;;;;;;5053808;28;20550;-69
2023/07/01 11:54:16;;;;;;;4.50;1.75;;;;;;;;;;5050606;28;20044;-72
2023/07/01 11:56:46;;;;;;;2.10;1.60;;;;;;;;;;5055301;28;20048;-71
2023/07/01 11:59:29;;;;;;;2.03;1.35;;;;;;;;;;5058070;28;20151;-71
2023/07/01 12:01:57;;;;;;;2.72;1.40;;;;;;;;;;5051249;28;20305;-70
2023/07/01 12:04:27;;;;;;;3.22;1.50;;;;;;;;;;5060115;28;20052;-69
2023/07/01 12:07:06;;;;;;;3.50;1.88;;;;;;;;;;5059355;28;20448;-71
2023/07/01 12:09:35;;;;;;;2.45;1.50;;;;;;;;;;5057781;28;20496;-68
2023/07/01 12:12:05;;;;;;;2.28;1.40;;;;;;;;;;5054008;28;20060;-73
2023/07/01 12:14:33;;;;;;;4.57;1.58;;;;;;;;;;5058697;28;20080;-71
2023/07/01 12:17:03;;;;;;;2.97;1.67;;;;;;;;;;5050420;28;20064;-72
2023/07/01 12:19:31;;;;;;;4.10;1.40;;;;;;;;;;5055669;28;20087;-71
2023/07/01 12:22:01;;;;;;;2.78;1.58;;;;;;;;;;5056956;28;20126;-68
2023/07/01 12:24:30;;;;;;;3.63;1.80;;;;;;;;;;5053695;28;20118;-72
2023/07/01 12:26:59;;;;;;;2.97;1.75;;;;;;;;;;5057029;28;20153;-71
2023/07/01 12:29:29;;;;;;;2.22;1.70;;;;;;;;;;5053689;28;20049;-71
2023/07/01 12:31:57;;;;;;;2.60;1.65;;;;;;;;;;5053575;28;20052;-69
2023/07/01 12:34:26;;;;;;;3.03;1.42;;;;;;;;;;5058563;28;20471;-72
2023/07/01 12:36:55;;;;;;;2.97;1.73;;;;;;;;;;5056171;28;20045;-74
2023/07/01 12:39:24;;;;;;;2.47;1.63;;;;;;;;;;5060275;28;20049;-72
2023/07/01 12:41:54;;;;;;;3.10;1.83;;;;;;;;;;5062176;28;20048;-72
2023/07/01 12:44:22;;;;;;;2.90;1.70;;;;;;;;;;5059267;28;20489;-70
2023/07/01 12:46:52;;;;;;;2.10;1.48;;;;;;;;;;5061988;28;20094;-70
2023/07/01 12:49:21;;;;;;;1.65;1.30;;;;;;;;;;5061853;28;20072;-70
2023/07/01 12:51:50;;;;;;;1.85;1.33;;;;;;;;;;5060577;28;20057;-70
2023/07/01 12:54:18;;;;;;;1.98;1.35;;;;;;;;;;5062828;28;20045;-70
2023/07/01 12:56:47;;;;;;;2.67;1.73;;;;;;;;;;5063718;28;20056;-69
2023/07/01 12:59:15;;;;;;;2.83;1.50;;;;;;;;;;5060920;28;20614;-69
2023/07/01 13:01:45;;;;;;;2.55;1.58;;;;;;;;;;5061878;28;20056;-69
2023/07/01 13:04:17;;;;;;;2.13;1.50;;;;;;;;;;5061713;28;20444;-70
2023/07/01 13:06:46;;;;;;;2.55;1.20;;;;;;;;;;5061813;28;20056;-70
2023/07/01 13:09:14;;;;;;;4.40;1.48;;;;;;;;;;5061608;28;20052;-68
2023/07/01 13:11:44;;;;;;;4.15;1.52;;;;;;;;;;5058822;28;20110;-69
2023/07/01 13:14:14;;;;;;;2.22;1.30;;;;;;;;;;5064216;28;20083;-69
2023/07/01 13:16:44;;;;;;;1.98;1.48;;;;;;;;;;5057929;28;20579;-69
2023/07/01 13:19:13;;;;;;;2.40;1.58;;;;;;;;;;5056191;28;20149;-70
2023/07/01 13:21:44;;;;;;;2.22;1.42;;;;;;;;;;5058437;28;20044;-69
2023/07/01 13:24:13;;;;;;;2.72;1.70;;;;;;;;;;5063998;28;20044;-68
2023/07/01 13:26:42;;;;;;;2.75;1.50;;;;;;;;;;5060534;28;20213;-68
2023/07/01 13:29:12;;;;;;;3.28;1.40;;;;;;;;;;5061610;28;20076;-69
2023/07/01 13:31:41;;;;;;;2.13;1.50;;;;;;;;;;5059816;28;20052;-70
2023/07/01 13:34:10;;;;;;;2.03;1.30;;;;;;;;;;5062602;28;20052;-69
2023/07/01 13:36:39;;;;;;;2.72;1.67;;;;;;;;;;5037553;28;20064;-69
2023/07/01 13:39:14;;;;;;;2.38;1.65;;;;;;;;;;5039472;28;20529;-68
2023/07/01 13:41:42;;;;;;;;;;;;;;;;;;5038474;28;20088;-69
2023/07/01 13:44:18;;;;;;;2.40;1.33;;;;;;;;;;5037619;28;20365;-71
2023/07/01 13:46:47;;;;;;;1.60;1.35;;;;;;;;;;5053876;28;20377;-71
2023/07/01 13:49:19;;;;;;;2.55;1.63;;;;;;;;;;5058141;28;20119;-68
2023/07/01 13:51:48;;;;;;;3.25;1.48;;;;;;;;;;5056358;28;20111;-69
2023/07/01 13:54:19;;;;;;;2.50;1.70;;;;;;;;;;5058425;28;20485;-70
2023/07/01 13:56:47;;;;;;;2.38;1.33;;;;;;;;;;5062676;28;20052;-70
2023/07/01 13:59:16;;;;;;;2.75;1.50;;;;;;;;;;5060828;28;20496;-71
2023/07/01 14:01:57;;;;;;;3.67;1.63;;;;;;;;;;5056315;28;20110;-69
2023/07/01 14:04:26;;;;;;;1.70;1.33;;;;;;;;;;5057855;28;20075;-69
2023/07/01 14:06:55;;;;;;;3.10;1.40;;;;;;;;;;5056298;28;20056;-69
2023/07/01 14:09:26;;;;;;;1.85;1.40;;;;;;;;;;5057482;28;20079;-69
2023/07/01 14:11:55;;;;;;;2.25;1.42;;;;;;;;;;5055020;28;20077;-69
2023/07/01 14:14:27;;;;;;;1.58;1.20;;;;;;;;;;5051463;28;20060;-67
2023/07/01 14:16:55;;;;;;;1.95;1.50;;;;;;;;;;5052721;28;20060;-67
2023/07/01 14:19:25;;;;;;;1.77;1.40;;;;;;;;;;5050420;28;20632;-66
2023/07/01 14:21:55;;;;;;;1.40;1.30;;;;;;;;;;5054154;28;20040;-68
2023/07/01 14:24:26;;;;;;;3.05;1.30;;;;;;;;;;5061069;28;20044;-70
2023/07/01 14:26:56;;;;;;;2.10;1.38;;;;;;;;;;5059117;28;20090;-68
2023/07/01 14:29:24;;;;;;;2.67;1.40;;;;;;;;;;5057431;28;20185;-69
2023/07/01 14:31:53;;;;;;;2.17;1.48;;;;;;;;;;5059154;28;20059;-70
2023/07/01 14:34:24;;;;;;;3.17;1.60;;;;;;;;;;5056872;28;20410;-70
2023/07/01 14:36:57;;;;;;;1.67;1.20;;;;;;;;;;5057795;28;20651;-69
2023/07/01 14:39:37;;;;;;;2.20;1.40;;;;;;;;;;5056654;28;21077;-69
2023/07/01 14:42:08;;;;;;;2.38;1.48;;;;;;;;;;5060383;28;20044;-70
2023/07/01 14:44:36;;;;;;;4.15;1.40;;;;;;;;;;5062996;28;20044;-68
2023/07/01 14:47:05;;;;;;;3.78;1.65;;;;;;;;;;5058647;28;20044;-68
2023/07/01 14:49:35;;;;;;;2.50;1.38;;;;;;;;;;5058681;28;20492;-70
2023/07/01 14:52:04;;;;;;;1.40;1.10;;;;;;;;;;5057992;28;20578;-71